Time;durP1;ratioP1;P1;durP2;ratioP2;P2;SDS_P1;SDS_P2;PMS_P1;PMS_P2;Temp;Humidity;BMP_temperature;BMP_pressure;BME280_temperature;BME280_humidity;BME280_pressure;Samples;Min_cycle;Max_cycle;Signal;HPM_P1;HPM_P2
2022/03/15 00:00:22;;;;;;;38.30;25.10;;;;;;;0.90;53.54;96624.19;5050303;28;20263;-63
2022/03/15 00:02:51;;;;;;;40.57;25.13;;;;;;;0.86;53.05;96618.28;5045662;28;20224;-64
2022/03/15 00:05:17;;;;;;;39.03;23.93;;;;;;;0.76;53.67;96625.50;5046540;28;20505;-64
2022/03/15 00:07:44;;;;;;;45.43;25.20;;;;;;;0.70;53.81;96617.97;5047140;28;20231;-63
2022/03/15 00:10:12;;;;;;;34.97;24.80;;;;;;;0.81;53.25;96625.38;5046297;28;20244;-61
2022/03/15 00:12:43;;;;;;;41.93;25.37;;;;;;;0.97;53.27;96630.84;5046431;28;20231;-64
2022/03/15 00:15:10;;;;;;;44.20;25.87;;;;;;;0.95;53.20;96619.69;5046236;28;20308;-64
2022/03/15 00:17:40;;;;;;;39.80;24.77;;;;;;;0.63;53.75;96625.09;5049782;28;20693;-63
2022/03/15 00:20:11;;;;;;;45.53;24.47;;;;;;;0.64;54.14;96620.75;5043480;28;20205;-63
2022/03/15 00:22:37;;;;;;;38.10;23.10;;;;;;;0.85;53.15;96622.59;5048242;28;20242;-63
2022/03/15 00:25:08;;;;;;;51.70;23.83;;;;;;;0.76;53.37;96622.94;5047106;28;20267;-63
2022/03/15 00:27:34;;;;;;;37.37;23.43;;;;;;;0.55;53.53;96626.25;5045657;28;20396;-63
2022/03/15 00:30:01;;;;;;;37.13;23.47;;;;;;;0.48;54.06;96630.75;5046637;28;20225;-63
2022/03/15 00:32:26;;;;;;;38.70;23.53;;;;;;;0.52;54.39;96626.34;5047090;28;20312;-62
2022/03/15 00:34:52;;;;;;;37.80;22.70;;;;;;;0.55;53.97;96610.72;5047494;28;20236;-63
2022/03/15 00:37:18;;;;;;;40.10;23.57;;;;;;;0.41;54.21;96616.34;5044748;28;20217;-63
2022/03/15 00:39:44;;;;;;;37.40;22.10;;;;;;;0.35;54.60;96612.22;5045803;28;20251;-63
2022/03/15 00:42:11;;;;;;;30.87;22.00;;;;;;;0.40;54.33;96620.69;5046127;28;20240;-63
2022/03/15 00:44:36;;;;;;;33.87;21.87;;;;;;;0.36;54.31;96608.75;5045305;28;20224;-63
2022/03/15 00:47:02;;;;;;;37.00;22.50;;;;;;;0.29;54.19;96607.25;5046074;28;20587;-63
2022/03/15 00:49:28;;;;;;;28.03;21.23;;;;;;;0.38;54.38;96606.13;5052211;28;20207;-63
2022/03/15 00:51:54;;;;;;;28.30;21.23;;;;;;;0.31;54.24;96610.63;5051079;28;20224;-63
2022/03/15 00:54:21;;;;;;;36.03;22.67;;;;;;;0.25;54.74;96615.16;5042685;28;20285;-63
2022/03/15 00:56:46;;;;;;;37.83;22.93;;;;;;;0.26;54.67;96607.34;5044729;28;20278;-63
2022/03/15 00:59:12;;;;;;;35.13;22.50;;;;;;;0.25;54.93;96595.31;5045668;28;20216;-63
2022/03/15 01:01:38;;;;;;;36.77;21.57;;;;;;;0.29;54.66;96591.72;5044882;28;20209;-64
2022/03/15 01:04:04;;;;;;;34.27;22.73;;;;;;;0.32;54.39;96591.63;5045043;28;20224;-63
2022/03/15 01:06:30;;;;;;;32.03;22.17;;;;;;;0.13;54.36;96586.19;5046569;28;20223;-63
2022/03/15 01:08:55;;;;;;;27.77;20.63;;;;;;;0.14;54.27;96587.91;5046685;28;20271;-61
2022/03/15 01:11:21;;;;;;;28.60;20.07;;;;;;;0.11;54.29;96582.84;5044927;28;20319;-62
2022/03/15 01:13:47;;;;;;;27.03;19.77;;;;;;;0.10;53.97;96575.94;5044744;28;20284;-62
2022/03/15 01:16:13;;;;;;;35.07;21.57;;;;;;;0.11;53.80;96579.41;5043556;28;20216;-61
2022/03/15 01:18:39;;;;;;;27.87;20.83;;;;;;;0.04;54.39;96585.66;5044724;28;20240;-61
2022/03/15 01:21:04;;;;;;;25.97;20.07;;;;;;;0.01;54.95;96588.34;5044896;28;20235;-61
2022/03/15 01:23:31;;;;;;;28.20;21.37;;;;;;;0.02;55.16;96595.22;5046507;28;20227;-61
2022/03/15 01:25:57;;;;;;;29.37;21.67;;;;;;;-0.06;55.41;96585.94;5050699;28;20239;-61
2022/03/15 01:28:24;;;;;;;32.37;22.27;;;;;;;-0.15;55.70;96586.25;5049031;28;20269;-62
2022/03/15 01:30:50;;;;;;;27.57;20.50;;;;;;;-0.19;55.41;96592.41;5046678;28;20229;-62
2022/03/15 01:33:17;;;;;;;31.87;21.87;;;;;;;-0.16;54.91;96592.31;5045572;28;20313;-61
2022/03/15 01:35:43;;;;;;;31.60;21.33;;;;;;;-0.15;55.20;96591.41;5039265;28;20225;-61
2022/03/15 01:38:09;;;;;;;33.83;21.63;;;;;;;-0.07;55.68;96599.78;5046322;28;20236;-61
2022/03/15 01:40:35;;;;;;;33.07;21.90;;;;;;;-0.17;55.33;96600.97;5048476;28;20209;-63
2022/03/15 01:43:00;;;;;;;33.43;22.37;;;;;;;-0.34;55.74;96593.72;5062472;28;20232;-62
2022/03/15 01:45:34;;;;;;;32.07;22.33;;;;;;;-0.30;55.74;96597.06;5051905;28;20248;-61
2022/03/15 01:48:01;;;;;;;31.63;21.67;;;;;;;-0.32;56.10;96601.41;5054791;28;20366;-61
2022/03/15 01:50:27;;;;;;;34.37;22.87;;;;;;;-0.41;56.58;96601.72;5046092;28;20273;-62
2022/03/15 01:52:52;;;;;;;36.63;24.80;;;;;;;-0.53;56.64;96600.34;5044304;28;20213;-62
2022/03/15 01:55:18;;;;;;;37.93;24.13;;;;;;;-0.57;56.89;96604.75;5062912;28;20215;-61
2022/03/15 01:57:44;;;;;;;36.93;26.10;;;;;;;-0.59;57.59;96601.34;5047983;28;20228;-61
2022/03/15 02:00:10;;;;;;;38.90;26.50;;;;;;;-0.66;58.05;96607.63;5050799;28;20306;-62
2022/03/15 02:02:36;;;;;;;39.30;27.10;;;;;;;-0.59;57.70;96622.03;5048507;28;20299;-61
2022/03/15 02:05:01;;;;;;;42.50;27.37;;;;;;;-0.86;58.53;96609.91;5044534;28;20211;-62
2022/03/15 02:07:27;;;;;;;37.70;26.20;;;;;;;-0.69;57.92;96610.28;5046222;28;20204;-61
2022/03/15 02:09:53;;;;;;;39.00;26.73;;;;;;;-0.76;58.58;96599.28;5045175;28;20248;-62
2022/03/15 02:12:19;;;;;;;38.83;25.70;;;;;;;-0.76;58.35;96594.09;5044237;28;20259;-63
2022/03/15 02:14:44;;;;;;;37.63;26.57;;;;;;;-0.81;58.17;96602.88;5041893;28;20240;-62
2022/03/15 02:17:10;;;;;;;38.27;25.87;;;;;;;-0.75;58.26;96597.53;5046560;28;20228;-61
2022/03/15 02:19:37;;;;;;;37.80;25.93;;;;;;;-0.76;57.80;96608.75;5046597;28;20208;-61
2022/03/15 02:22:03;;;;;;;37.40;26.37;;;;;;;-0.71;57.79;96612.06;5039117;28;20224;-61
2022/03/15 02:24:29;;;;;;;35.03;24.53;;;;;;;-0.55;57.74;96590.06;5046014;28;20780;-62
2022/03/15 02:26:55;;;;;;;32.73;22.00;;;;;;;-0.62;57.29;96582.53;5045352;28;20232;-62
2022/03/15 02:29:21;;;;;;;33.37;21.77;;;;;;;-0.67;56.74;96586.09;5044952;28;20244;-62
2022/03/15 02:31:47;;;;;;;30.10;21.20;;;;;;;-0.66;56.36;96579.19;5047029;28;20204;-62
2022/03/15 02:34:13;;;;;;;30.40;20.27;;;;;;;-0.72;56.61;96579.38;5046187;28;20232;-62
2022/03/15 02:36:39;;;;;;;27.57;19.83;;;;;;;-0.64;55.70;96569.66;5046709;28;20232;-62
2022/03/15 02:39:04;;;;;;;27.90;20.03;;;;;;;-0.77;56.55;96561.44;5044584;28;20236;-62
2022/03/15 02:41:30;;;;;;;25.07;19.73;;;;;;;-0.84;56.38;96565.06;5047181;28;20235;-62
2022/03/15 02:43:58;;;;;;;29.67;21.73;;;;;;;-0.81;56.25;96564.13;5043335;28;20213;-62
2022/03/15 02:46:34;;;;;;;27.73;20.33;;;;;;;-0.84;56.14;96567.66;5045364;28;20205;-62
2022/03/15 02:49:00;;;;;;;24.80;19.50;;;;;;;-0.71;55.29;96569.00;5044869;28;20243;-62
2022/03/15 02:51:26;;;;;;;24.10;18.70;;;;;;;-0.66;54.99;96584.38;5047063;28;20228;-62
2022/03/15 02:53:53;;;;;;;24.97;18.57;;;;;;;-0.70;55.44;96587.91;5044817;28;20230;-62
2022/03/15 02:56:19;;;;;;;28.70;20.47;;;;;;;-0.82;55.88;96578.78;5041935;28;20229;-62
2022/03/15 02:58:44;;;;;;;26.90;18.90;;;;;;;-0.74;56.05;96586.31;5043917;28;20266;-62
2022/03/15 03:01:10;;;;;;;24.83;19.17;;;;;;;-0.73;55.62;96590.59;5059652;28;20232;-62
2022/03/15 03:03:36;;;;;;;23.57;19.07;;;;;;;-0.78;55.41;96584.72;5045075;28;20294;-62
2022/03/15 03:06:03;;;;;;;30.77;21.37;;;;;;;-0.91;56.38;96572.16;5044523;28;20228;-62
2022/03/15 03:08:30;;;;;;;31.30;21.83;;;;;;;-1.00;57.66;96580.16;5045479;28;20248;-61
2022/03/15 03:10:57;;;;;;;31.63;22.30;;;;;;;-1.03;57.42;96574.25;5044879;28;20311;-62
2022/03/15 03:13:26;;;;;;;29.87;21.67;;;;;;;-1.04;57.97;96577.69;5062424;28;20200;-62
2022/03/15 03:15:57;;;;;;;31.83;21.43;;;;;;;-1.15;58.34;96568.53;5044473;28;20425;-63
2022/03/15 03:18:23;;;;;;;28.53;21.07;;;;;;;-1.17;58.03;96564.31;5059862;28;20319;-63
2022/03/15 03:20:50;;;;;;;28.93;20.93;;;;;;;-1.05;58.10;96563.09;5044466;28;20797;-64
2022/03/15 03:23:17;;;;;;;29.27;21.77;;;;;;;-1.12;58.15;96562.44;5044594;28;20294;-63
2022/03/15 03:25:43;;;;;;;31.30;22.27;;;;;;;-1.18;58.62;96558.28;5046629;28;20197;-63
2022/03/15 03:28:09;;;;;;;32.03;21.20;;;;;;;-1.25;58.32;96561.94;5046343;28;20221;-63
2022/03/15 03:30:37;;;;;;;30.80;20.67;;;;;;;-1.33;58.12;96556.97;5053579;28;20216;-63
2022/03/15 03:33:03;;;;;;;31.23;20.40;;;;;;;-1.26;58.05;96551.66;5045179;28;20267;-63
2022/03/15 03:35:29;;;;;;;29.73;21.23;;;;;;;-1.11;57.74;96552.06;5043637;28;20228;-62
2022/03/15 03:37:55;;;;;;;29.43;20.63;;;;;;;-1.18;58.08;96552.28;5047924;28;20220;-63
2022/03/15 03:40:21;;;;;;;26.30;19.50;;;;;;;-1.26;58.03;96546.50;5045419;28;20212;-62
2022/03/15 03:42:46;;;;;;;26.33;19.90;;;;;;;-1.28;57.78;96558.56;5043783;28;20235;-62
2022/03/15 03:45:12;;;;;;;26.90;18.40;;;;;;;-1.37;57.87;96557.94;5049616;28;20224;-62
2022/03/15 03:47:37;;;;;;;28.83;20.53;;;;;;;-1.40;58.35;96557.19;5048866;28;20216;-62
2022/03/15 03:50:04;;;;;;;30.63;20.97;;;;;;;-1.40;59.21;96557.19;5052484;28;20189;-63
2022/03/15 03:52:30;;;;;;;30.13;20.27;;;;;;;-1.29;58.76;96559.47;5048363;28;20254;-63
2022/03/15 03:54:55;;;;;;;26.70;19.40;;;;;;;-1.46;59.29;96565.94;5049952;28;20225;-62
2022/03/15 03:57:21;;;;;;;29.20;21.60;;;;;;;-1.48;59.30;96577.19;5051495;28;20235;-62
2022/03/15 03:59:46;;;;;;;28.90;22.50;;;;;;;-1.39;59.15;96592.41;5052811;28;20212;-63
2022/03/15 04:02:12;;;;;;;32.63;23.03;;;;;;;-1.42;59.26;96589.91;5052338;28;20216;-62
2022/03/15 04:04:37;;;;;;;29.10;21.97;;;;;;;-1.41;59.37;96595.06;5051843;28;20338;-62
2022/03/15 04:07:08;;;;;;;31.67;22.73;;;;;;;-1.53;59.49;96603.09;5066382;28;20256;-62
2022/03/15 06:24:51;;;;;;;41.47;27.00;;;;;;;0.04;54.87;96638.22;4991119;23;20311;-66
2022/03/15 06:27:16;;;;;;;36.33;26.93;;;;;;;-0.10;55.67;96643.84;4924858;28;20311;-67
2022/03/15 06:29:42;;;;;;;37.80;27.43;;;;;;;0.25;54.75;96636.72;4922336;28;20217;-67
2022/03/15 06:32:07;;;;;;;38.23;26.43;;;;;;;0.37;54.37;96638.03;4923183;28;20251;-67
2022/03/15 06:34:33;;;;;;;38.50;27.63;;;;;;;0.47;54.18;96641.19;4925549;28;20197;-65
2022/03/15 06:36:59;;;;;;;35.37;27.13;;;;;;;0.58;53.73;96639.91;4920762;28;20221;-66
2022/03/15 06:39:24;;;;;;;39.53;27.37;;;;;;;0.73;53.72;96637.72;4939027;28;20256;-63
2022/03/15 06:41:51;;;;;;;40.73;27.07;;;;;;;0.90;52.97;96644.91;4921918;29;20227;-64
2022/03/15 06:44:16;;;;;;;39.43;28.57;;;;;;;1.09;52.83;96651.13;4924413;28;20220;-68
2022/03/15 06:46:42;;;;;;;37.40;27.83;;;;;;;1.23;51.86;96646.31;4923319;28;20255;-69
2022/03/15 06:49:08;;;;;;;35.13;27.77;;;;;;;1.20;52.01;96646.41;4926088;28;20223;-68
2022/03/15 06:51:33;;;;;;;50.60;29.77;;;;;;;1.18;52.12;96645.63;4928365;28;20221;-67
2022/03/15 06:53:59;;;;;;;42.33;28.50;;;;;;;1.26;52.07;96637.59;4928223;29;20243;-69
2022/03/15 06:56:27;;;;;;;37.23;29.10;;;;;;;1.33;51.87;96642.47;4939362;28;20229;-67
2022/03/15 06:58:53;;;;;;;37.13;28.27;;;;;;;1.44;51.33;96652.44;4942486;28;20243;-68
2022/03/15 07:01:19;;;;;;;42.00;28.27;;;;;;;1.39;51.60;96641.44;4930142;28;20247;-68
2022/03/15 07:03:44;;;;;;;39.30;27.20;;;;;;;1.50;50.84;96641.03;4927658;29;20267;-66
2022/03/15 07:06:10;;;;;;;39.63;28.00;;;;;;;1.58;50.95;96644.19;4928332;28;20220;-64
2022/03/15 07:08:36;;;;;;;36.20;27.80;;;;;;;1.62;50.60;96642.31;4920899;28;20267;-68
2022/03/15 07:11:02;;;;;;;39.20;28.70;;;;;;;1.69;50.54;96648.97;4928482;28;20208;-68
2022/03/15 07:13:27;;;;;;;44.87;31.50;;;;;;;1.85;50.44;96646.66;4930584;29;20268;-69
2022/03/15 07:15:52;;;;;;;43.90;32.03;;;;;;;1.98;50.32;96656.50;4931885;28;20253;-67
2022/03/15 07:18:19;;;;;;;41.63;31.73;;;;;;;2.08;49.63;96645.75;4927321;28;20233;-67
2022/03/15 07:20:44;;;;;;;55.33;34.37;;;;;;;2.01;49.74;96641.72;4950226;28;20279;-67
2022/03/15 07:23:10;;;;;;;60.60;39.77;;;;;;;2.19;49.70;96649.63;4927001;28;20259;-66
2022/03/15 07:25:35;;;;;;;55.30;39.43;;;;;;;2.13;49.87;96641.22;4930336;29;20245;-67
2022/03/15 07:28:01;;;;;;;57.10;36.97;;;;;;;2.27;49.38;96641.50;4960381;28;20228;-67
2022/03/15 07:30:26;;;;;;;60.73;39.07;;;;;;;2.24;50.06;96648.56;4917219;29;20216;-66
2022/03/15 07:32:52;;;;;;;47.50;35.17;;;;;;;2.45;49.41;96649.47;4950876;28;20315;-64
2022/03/15 07:35:18;;;;;;;48.83;34.23;;;;;;;2.47;48.44;96648.50;4937295;28;20306;-65
2022/03/15 07:37:51;;;;;;;48.03;34.67;;;;;;;2.20;48.85;96656.50;4932962;28;20244;-65
2022/03/15 07:40:17;;;;;;;45.60;33.60;;;;;;;2.40;48.46;96649.66;4927611;29;20248;-68
2022/03/15 07:42:43;;;;;;;46.20;32.53;;;;;;;2.29;48.61;96657.03;4924621;29;20304;-67
2022/03/15 07:45:09;;;;;;;50.10;33.37;;;;;;;2.41;48.48;96656.56;4932985;29;20300;-67
2022/03/15 07:47:35;;;;;;;45.33;30.57;;;;;;;2.45;48.22;96657.25;4926861;28;20229;-68
2022/03/15 07:50:01;;;;;;;43.00;30.70;;;;;;;2.63;47.84;96653.91;4919469;28;20221;-67
2022/03/15 07:52:27;;;;;;;46.50;32.03;;;;;;;2.79;47.15;96636.78;4935477;28;20224;-64
2022/03/15 07:54:53;;;;;;;44.57;30.93;;;;;;;2.87;46.75;96642.50;4917133;29;20234;-65
2022/03/15 07:57:18;;;;;;;43.57;30.17;;;;;;;2.88;46.41;96636.38;4929492;29;20231;-66
2022/03/15 07:59:46;;;;;;;47.57;31.23;;;;;;;3.00;46.31;96636.78;4933997;29;20248;-61
2022/03/15 08:02:12;;;;;;;42.90;31.33;;;;;;;3.01;46.22;96635.88;4947314;29;20228;-70
2022/03/15 08:04:38;;;;;;;46.30;29.70;;;;;;;3.23;45.41;96628.81;4932865;29;20205;-70
2022/03/15 08:07:03;;;;;;;33.03;24.37;;;;;;;3.27;44.85;96632.13;4933048;28;20228;-61
2022/03/15 08:09:29;;;;;;;36.40;24.70;;;;;;;3.42;43.91;96621.06;4933217;28;20224;-62
2022/03/15 08:11:54;;;;;;;30.37;21.23;;;;;;;3.44;43.22;96629.63;4934046;28;20229;-63
2022/03/15 08:14:20;;;;;;;31.90;22.93;;;;;;;3.57;42.83;96629.09;4934417;29;20228;-64
2022/03/15 08:16:45;;;;;;;34.57;26.70;;;;;;;3.43;44.05;96619.31;4930632;28;20215;-64
2022/03/15 08:19:12;;;;;;;39.10;27.63;;;;;;;3.63;43.68;96623.59;4933108;29;20232;-65
2022/03/15 08:21:40;;;;;;;38.00;27.30;;;;;;;3.58;44.27;96626.38;4934328;28;20251;-67
2022/03/15 08:24:06;;;;;;;35.57;27.23;;;;;;;3.68;43.20;96601.66;4934950;29;20308;-67
2022/03/15 08:26:31;;;;;;;34.10;26.07;;;;;;;3.70;43.70;96614.59;4926271;29;20328;-69
2022/03/15 08:28:57;;;;;;;40.23;27.97;;;;;;;3.91;43.69;96617.97;4918929;28;20260;-69
2022/03/15 08:31:22;;;;;;;39.40;28.20;;;;;;;4.03;43.09;96619.13;4917045;29;20206;-62
2022/03/15 08:33:48;;;;;;;39.17;28.87;;;;;;;4.06;43.01;96616.38;4932763;28;20264;-62
2022/03/15 08:36:13;;;;;;;43.63;28.50;;;;;;;4.09;42.79;96611.03;4926846;28;20442;-65
2022/03/15 08:38:39;;;;;;;45.80;29.67;;;;;;;4.20;42.52;96619.19;4917647;29;20225;-67
2022/03/15 08:41:06;;;;;;;48.00;30.07;;;;;;;4.17;42.71;96608.91;4921857;28;20213;-65
2022/03/15 08:43:31;;;;;;;38.00;27.87;;;;;;;4.26;42.66;96607.63;4917014;29;20192;-68
2022/03/15 08:45:58;;;;;;;41.53;26.00;;;;;;;4.38;42.89;96600.09;4911336;29;20278;-68
2022/03/15 08:48:23;;;;;;;33.47;25.83;;;;;;;4.50;42.22;96596.03;4943734;28;20285;-71
2022/03/15 08:50:49;;;;;;;41.37;26.90;;;;;;;4.62;41.64;96589.34;4913181;29;20225;-65
2022/03/15 08:53:15;;;;;;;38.10;25.37;;;;;;;4.63;41.62;96583.22;4929880;28;20225;-64
2022/03/15 08:55:41;;;;;;;34.77;25.57;;;;;;;4.63;41.73;96585.84;4912959;29;20260;-65
2022/03/15 08:58:07;;;;;;;37.40;25.27;;;;;;;4.68;41.97;96578.63;4915675;29;20248;-63
2022/03/15 09:00:32;;;;;;;34.43;26.07;;;;;;;4.86;41.65;96574.22;4917366;29;20269;-68
2022/03/15 09:02:57;;;;;;;40.53;26.27;;;;;;;4.99;41.81;96574.44;4928158;29;20257;-65
2022/03/15 09:05:23;;;;;;;40.57;25.73;;;;;;;5.15;40.98;96577.09;4910445;29;20249;-67
2022/03/15 09:07:53;;;;;;;39.70;26.00;;;;;;;5.24;40.53;96571.41;4941653;28;20209;-62
2022/03/15 09:10:23;;;;;;;37.47;26.50;;;;;;;5.24;40.70;96568.81;4910925;29;20303;-66
2022/03/15 09:12:50;;;;;;;35.17;25.37;;;;;;;5.24;40.12;96572.25;4914170;29;20224;-73
2022/03/15 09:15:16;;;;;;;37.03;24.33;;;;;;;5.52;40.21;96570.78;4913581;29;20229;-69
2022/03/15 09:17:42;;;;;;;34.17;24.37;;;;;;;5.54;39.51;96563.72;4930722;28;20224;-65
2022/03/15 09:20:09;;;;;;;34.47;25.57;;;;;;;5.85;39.44;96568.06;4915594;29;20233;-71
2022/03/15 09:22:35;;;;;;;35.40;25.57;;;;;;;5.77;38.38;96556.38;4905550;29;20205;-72
2022/03/15 09:25:02;;;;;;;28.43;22.73;;;;;;;5.88;38.82;96557.50;4913278;29;20229;-65
2022/03/15 09:27:27;;;;;;;33.40;23.97;;;;;;;6.05;38.11;96551.34;4913762;29;20235;-69
2022/03/15 09:29:54;;;;;;;31.67;23.03;;;;;;;6.29;37.70;96550.88;4925832;29;20237;-67
2022/03/15 09:32:20;;;;;;;35.13;24.10;;;;;;;6.41;37.70;96552.78;4928454;29;20222;-68
2022/03/15 09:34:46;;;;;;;38.40;24.00;;;;;;;6.48;37.20;96550.66;4914684;29;20300;-65
2022/03/15 09:37:12;;;;;;;34.17;25.37;;;;;;;6.56;36.41;96536.22;4918144;29;20298;-63
2022/03/15 09:39:38;;;;;;;38.90;24.93;;;;;;;6.69;36.20;96538.13;4912793;29;20228;-63
2022/03/15 09:42:07;;;;;;;33.87;24.17;;;;;;;6.84;35.76;96535.44;4912324;29;20217;-66
2022/03/15 09:44:35;;;;;;;35.70;24.93;;;;;;;6.90;35.51;96528.16;4908890;29;20302;-64
2022/03/15 09:47:03;;;;;;;33.53;25.10;;;;;;;7.01;34.82;96528.34;4912860;29;20213;-65
2022/03/15 09:49:31;;;;;;;31.13;23.70;;;;;;;7.13;34.68;96529.38;4893392;29;20349;-65
2022/03/15 09:51:57;;;;;;;38.37;24.73;;;;;;;7.23;34.82;96525.25;4940528;28;20229;-63
2022/03/15 09:54:25;;;;;;;35.90;24.40;;;;;;;7.43;34.12;96519.66;4915579;29;20230;-66
2022/03/15 09:56:51;;;;;;;29.63;23.03;;;;;;;7.39;34.39;96523.38;4914171;29;20253;-63
2022/03/15 09:59:19;;;;;;;27.60;23.90;;;;;;;7.55;34.40;96518.03;4913542;29;20241;-69
2022/03/15 10:01:51;;;;;;;33.57;24.20;;;;;;;7.87;34.50;96515.97;4910569;29;20220;-66
2022/03/15 10:04:22;;;;;;;32.97;24.23;;;;;;;8.07;33.78;96505.97;4915877;29;20241;-67
2022/03/15 10:06:48;;;;;;;30.93;23.67;;;;;;;8.34;33.13;96505.94;4926276;29;20300;-64
2022/03/15 10:09:15;;;;;;;32.47;24.83;;;;;;;8.31;32.99;96495.69;4911046;29;20217;-67
2022/03/15 10:11:41;;;;;;;32.13;22.97;;;;;;;8.43;32.38;96494.06;4916725;29;20229;-66
2022/03/15 10:14:08;;;;;;;28.30;23.57;;;;;;;8.55;31.79;96488.84;4915234;28;20209;-66
2022/03/15 10:16:41;;;;;;;29.63;22.93;;;;;;;8.55;31.43;96485.38;4928583;29;20201;-65
2022/03/15 10:19:09;;;;;;;28.80;22.37;;;;;;;8.59;31.17;96489.47;4902343;29;20233;-65
2022/03/15 10:21:53;;;;;;;31.67;21.67;;;;;;;8.81;31.04;96492.31;4921673;29;20260;-66
2022/03/15 10:24:25;;;;;;;29.57;21.60;;;;;;;8.95;30.97;96480.88;4912925;29;20281;-66
2022/03/15 10:26:53;;;;;;;30.63;20.07;;;;;;;9.16;29.36;96475.91;4944405;28;20228;-65
2022/03/15 10:29:20;;;;;;;22.93;17.77;;;;;;;9.27;29.21;96478.66;4948413;28;20259;-65
2022/03/15 10:31:46;;;;;;;19.43;15.93;;;;;;;9.39;26.62;96473.47;4930742;29;20219;-65
2022/03/15 10:34:15;;;;;;;20.80;17.77;;;;;;;9.50;26.23;96476.16;4931422;28;20217;-68
2022/03/15 10:36:45;;;;;;;22.10;16.17;;;;;;;9.60;25.28;96458.81;4947650;28;20232;-68
2022/03/15 10:39:13;;;;;;;21.97;15.03;;;;;;;9.67;25.95;96457.41;4936798;28;20237;-65
2022/03/15 10:42:07;;;;;;;23.00;15.17;;;;;;;9.89;25.55;96458.47;4932563;28;20725;-65
2022/03/15 10:44:39;;;;;;;18.73;14.73;;;;;;;9.86;24.48;96445.56;4891400;29;20226;-68
2022/03/15 10:47:04;;;;;;;17.73;12.33;;;;;;;10.12;23.36;96438.38;4878360;29;20230;-65
2022/03/15 10:49:51;;;;;;;19.77;11.40;;;;;;;10.29;22.25;96435.38;4886625;29;20223;-65
2022/03/15 10:52:40;;;;;;;13.43;11.37;;;;;;;10.48;22.82;96434.84;4870713;29;20234;-61
2022/03/15 10:55:28;;;;;;;14.30;10.97;;;;;;;10.84;22.67;96427.69;4886232;29;20733;-65
2022/03/15 10:58:10;;;;;;;10.73;8.57;;;;;;;10.82;20.53;96419.06;4887058;29;20234;-64
2022/03/15 11:00:38;;;;;;;12.88;10.05;;;;;;;10.91;20.10;96421.00;4890131;29;20231;-67
2022/03/15 11:03:13;;;;;;;11.57;8.70;;;;;;;11.00;20.23;96412.38;4863601;29;20230;-64
2022/03/15 11:05:41;;;;;;;11.57;7.57;;;;;;;11.08;19.36;96408.31;4884984;29;20293;-63
2022/03/15 11:08:08;;;;;;;11.40;7.85;;;;;;;11.35;19.65;96400.84;4880874;29;20286;-69
2022/03/15 11:10:35;;;;;;;9.33;7.93;;;;;;;11.63;19.59;96403.94;4889673;29;20221;-65
2022/03/15 11:13:12;;;;;;;10.60;7.53;;;;;;;11.61;19.09;96403.22;4872880;29;20410;-67
2022/03/15 11:15:58;;;;;;;14.15;8.57;;;;;;;11.78;19.32;96386.00;4881393;29;20231;-68
2022/03/15 11:18:29;;;;;;;14.25;9.30;;;;;;;11.95;19.74;96382.00;4859359;29;20312;-66
2022/03/15 11:20:58;;;;;;;13.40;7.95;;;;;;;12.06;18.75;96377.53;4898554;28;20293;-72
2022/03/15 11:23:25;;;;;;;11.18;7.47;;;;;;;12.10;18.54;96370.22;4930965;28;20237;-63
2022/03/15 11:26:05;;;;;;;10.27;7.35;;;;;;;12.18;18.87;96372.22;4956449;28;20243;-71
2022/03/15 11:28:33;;;;;;;8.57;6.65;;;;;;;12.37;18.94;96364.41;4927453;29;20200;-67
2022/03/15 11:31:00;;;;;;;12.75;6.75;;;;;;;12.47;19.04;96356.56;4942158;28;20244;-66
2022/03/15 11:33:26;;;;;;;9.38;6.22;;;;;;;12.81;19.88;96357.16;4929139;28;20244;-62
2022/03/15 11:35:52;;;;;;;7.70;6.78;;;;;;;13.05;19.51;96351.53;4926245;28;20248;-65
2022/03/15 11:38:19;;;;;;;12.15;7.07;;;;;;;13.13;19.45;96349.06;4914103;29;20727;-65
2022/03/15 11:40:46;;;;;;;9.00;6.38;;;;;;;13.00;19.17;96349.28;4929719;29;20222;-66
2022/03/15 11:43:50;;;;;;;8.48;5.53;;;;;;;13.08;17.55;96343.34;4927726;28;20568;-67
2022/03/15 11:46:52;;;;;;;6.40;5.40;;;;;;;13.27;17.91;96339.13;4945073;28;20225;-65
2022/03/15 11:49:23;;;;;;;6.63;5.38;;;;;;;13.51;17.13;96342.22;4916886;29;20253;-68
2022/03/15 11:52:18;;;;;;;7.78;5.25;;;;;;;13.75;17.13;96338.34;4912417;29;20310;-65
2022/03/15 11:54:55;;;;;;;11.85;5.28;;;;;;;13.99;17.25;96333.44;4942903;28;20316;-64
2022/03/15 11:57:31;;;;;;;8.20;5.97;;;;;;;14.07;17.35;96320.34;4933074;29;20750;-65
2022/03/15 11:59:57;;;;;;;8.48;4.53;;;;;;;14.15;17.03;96324.13;4922178;29;20234;-66
2022/03/15 12:02:29;;;;;;;6.60;4.63;;;;;;;14.43;16.54;96323.19;4931842;29;20233;-62
2022/03/15 12:04:57;;;;;;;7.90;4.25;;;;;;;14.56;16.75;96314.97;4917508;28;20213;-63
2022/03/15 12:07:55;;;;;;;5.60;4.63;;;;;;;14.98;16.73;96301.28;4925211;29;20732;-69
2022/03/15 12:10:24;;;;;;;5.63;4.63;;;;;;;14.90;16.17;96299.38;4929211;29;20229;-65
2022/03/15 12:13:05;;;;;;;7.78;3.88;;;;;;;14.92;15.58;96308.00;4930577;29;20249;-66
2022/03/15 12:15:38;;;;;;;7.63;3.90;;;;;;;15.29;16.08;96293.88;4926168;28;20304;-66
2022/03/15 12:18:14;;;;;;;4.38;3.50;;;;;;;15.88;15.32;96294.28;4943010;28;20716;-66
2022/03/15 12:20:47;;;;;;;4.85;3.95;;;;;;;16.00;15.01;96284.25;4958568;28;20237;-67
2022/03/15 12:23:41;;;;;;;5.60;3.42;;;;;;;16.58;14.53;96280.97;4928281;29;20225;-65
2022/03/15 12:26:36;;;;;;;6.60;4.07;;;;;;;16.44;15.16;96273.56;4925170;28;20240;-67
2022/03/15 12:29:07;;;;;;;5.50;4.00;;;;;;;16.99;14.50;96262.56;4893184;29;20229;-67
2022/03/15 12:31:40;;;;;;;6.88;3.90;;;;;;;16.82;14.19;96268.84;4914711;29;20296;-68
2022/03/15 12:34:08;;;;;;;5.30;3.70;;;;;;;16.74;14.45;96269.59;4896714;29;20826;-63
2022/03/15 12:36:37;;;;;;;5.20;3.72;;;;;;;17.35;14.25;96263.19;4906701;29;20321;-62
2022/03/15 12:39:13;;;;;;;6.47;4.70;;;;;;;17.65;14.30;96258.22;4891140;29;20519;-63
2022/03/15 12:41:42;;;;;;;6.75;3.95;;;;;;;17.80;13.43;96250.44;4891141;29;20230;-64
2022/03/15 12:44:09;;;;;;;7.45;4.07;;;;;;;18.05;13.30;96259.25;4906096;29;20217;-65
2022/03/15 12:46:38;;;;;;;5.93;4.13;;;;;;;18.72;11.87;96253.63;4901559;29;20325;-66
2022/03/15 12:49:13;;;;;;;8.57;4.30;;;;;;;20.56;10.89;96256.41;4898157;29;20230;-66
2022/03/15 12:51:43;;;;;;;7.38;4.75;;;;;;;23.34;8.57;96251.09;4891187;29;20224;-64
2022/03/15 12:54:13;;;;;;;7.18;3.90;;;;;;;25.53;7.49;96256.34;4890006;29;20237;-70
2022/03/15 12:56:48;;;;;;;6.60;3.28;;;;;;;26.99;6.71;96258.94;4907698;29;20645;-74
2022/03/15 12:59:23;;;;;;;5.35;3.50;;;;;;;29.39;5.37;96254.16;4906240;29;20236;-66
2022/03/15 13:01:50;;;;;;;3.80;3.50;;;;;;;30.69;4.43;96240.75;4907513;29;20209;-67
2022/03/15 13:04:17;;;;;;;4.72;4.25;;;;;;;30.29;4.26;96244.47;4911470;29;20222;-75
2022/03/15 13:06:45;;;;;;;4.88;4.15;;;;;;;31.83;4.45;96244.63;4928489;29;20363;-69
2022/03/15 13:09:23;;;;;;;6.57;4.20;;;;;;;33.66;3.76;96248.13;4945910;28;20304;-73
2022/03/15 13:11:50;;;;;;;4.15;3.83;;;;;;;33.76;3.14;96232.59;4927624;29;20236;-67
2022/03/15 13:14:23;;;;;;;4.45;3.55;;;;;;;35.06;2.25;96233.13;4944023;28;20630;-72
2022/03/15 13:16:50;;;;;;;4.05;3.75;;;;;;;35.07;2.08;96223.03;4929748;29;20209;-66
2022/03/15 13:19:32;;;;;;;4.13;3.28;;;;;;;35.17;1.92;96224.94;4929356;29;20221;-71
2022/03/15 13:22:04;;;;;;;5.90;3.40;;;;;;;35.00;2.05;96226.03;4948526;28;20221;-63
2022/03/15 13:24:35;;;;;;;3.95;3.55;;;;;;;34.05;2.21;96215.72;4935254;28;20296;-63
2022/03/15 13:27:02;;;;;;;6.32;3.53;;;;;;;34.99;2.17;96215.38;4913294;29;20267;-61
2022/03/15 13:29:35;;;;;;;3.80;3.30;;;;;;;35.08;2.06;96217.31;4905695;29;20303;-62
2022/03/15 13:32:01;;;;;;;3.75;3.45;;;;;;;33.03;2.70;96199.06;4911477;29;20225;-71
2022/03/15 13:34:29;;;;;;;5.40;3.67;;;;;;;34.41;2.35;96204.84;4913758;29;20212;-65
2022/03/15 13:37:06;;;;;;;4.82;4.20;;;;;;;33.93;2.41;96201.53;4937834;29;20230;-70
2022/03/15 13:39:35;;;;;;;4.45;3.92;;;;;;;34.11;2.43;96194.72;4944594;28;20244;-70
2022/03/15 13:42:01;;;;;;;5.20;3.80;;;;;;;33.62;2.67;96189.75;4932990;29;20225;-69
2022/03/15 13:44:29;;;;;;;5.68;5.05;;;;;;;36.28;2.02;96195.31;4928639;29;20226;-66